Time;durP1;ratioP1;P1;durP2;ratioP2;P2;SDS_P1;SDS_P2;PMS_P1;PMS_P2;Temp;Humidity;BMP_temperature;BMP_pressure;BME280_temperature;BME280_humidity;BME280_pressure;Samples;Min_cycle;Max_cycle;Signal;HPM_P1;HPM_P2
2023/01/16 00:01:11;;;;;;;28.75;16.52;;;;;;;2.01;59.83;93717.53;4996795;28;20454;-79
2023/01/16 00:03:36;;;;;;;19.55;13.68;;;;;;;2.06;59.25;93740.34;4996480;28;20022;-79
2023/01/16 00:06:05;;;;;;;20.90;13.35;;;;;;;1.83;59.38;93698.88;4995963;28;20037;-79
2023/01/16 00:08:30;;;;;;;20.75;13.48;;;;;;;1.80;59.53;93700.19;4979969;28;20601;-80
2023/01/16 00:10:56;;;;;;;21.88;13.57;;;;;;;2.11;59.68;93737.72;4995893;28;20366;-79
2023/01/16 00:13:21;;;;;;;20.83;14.30;;;;;;;2.03;59.81;93719.91;4980117;28;20143;-78
2023/01/16 00:15:49;;;;;;;19.20;13.10;;;;;;;2.20;59.39;93738.03;4997547;28;20029;-79
2023/01/16 00:18:14;;;;;;;19.63;13.55;;;;;;;2.30;59.00;93736.19;4997198;28;20092;-78
2023/01/16 00:20:40;;;;;;;18.75;13.13;;;;;;;2.05;58.69;93689.75;4995622;28;20026;-78
2023/01/16 00:23:05;;;;;;;16.90;11.93;;;;;;;1.97;58.93;93692.09;4994470;28;20042;-80
2023/01/16 00:25:31;;;;;;;18.38;11.63;;;;;;;2.03;58.45;93691.84;4997844;28;20048;-79
2023/01/16 00:27:56;;;;;;;18.75;11.13;;;;;;;2.27;58.19;93717.53;4975642;28;20034;-80
2023/01/16 00:30:22;;;;;;;17.98;12.25;;;;;;;1.96;58.24;93683.44;4997957;28;20135;-78
2023/01/16 00:32:48;;;;;;;16.27;10.75;;;;;;;2.15;58.60;93707.31;4997537;28;20294;-78
2023/01/16 00:35:13;;;;;;;14.20;9.70;;;;;;;2.11;58.58;93713.34;4998892;28;20034;-78
2023/01/16 00:37:39;;;;;;;16.40;11.05;;;;;;;1.61;59.69;93691.25;4993508;28;20026;-80
2023/01/16 00:40:05;;;;;;;15.57;10.82;;;;;;;1.87;58.39;93705.19;4997137;28;20048;-79
2023/01/16 00:42:30;;;;;;;14.85;11.13;;;;;;;1.87;58.11;93677.13;4997809;28;20136;-79
2023/01/16 00:44:56;;;;;;;14.68;10.02;;;;;;;2.13;57.84;93701.53;4997565;28;20048;-78
2023/01/16 00:47:21;;;;;;;15.00;9.90;;;;;;;1.73;57.88;93641.97;4996602;28;20049;-78
2023/01/16 00:49:47;;;;;;;14.63;10.05;;;;;;;1.91;58.14;93670.31;4994907;28;20266;-79
2023/01/16 00:52:12;;;;;;;17.55;11.45;;;;;;;1.93;57.79;93704.94;4997054;28;20038;-79
2023/01/16 00:54:37;;;;;;;17.45;10.00;;;;;;;1.88;57.44;93698.91;4998034;28;20482;-78
2023/01/16 00:57:03;;;;;;;15.93;10.70;;;;;;;1.99;57.14;93703.13;4979303;28;20572;-78
2023/01/16 00:59:28;;;;;;;18.25;12.23;;;;;;;2.11;57.05;93705.50;4997464;28;20025;-79
2023/01/16 01:01:54;;;;;;;19.55;12.82;;;;;;;2.05;56.81;93687.13;4994841;28;20125;-80
2023/01/16 01:04:19;;;;;;;19.65;13.82;;;;;;;2.06;57.78;93698.38;4995834;28;20034;-79
2023/01/16 01:06:44;;;;;;;21.00;13.40;;;;;;;2.08;58.25;93701.53;4996795;28;20044;-79
2023/01/16 01:09:10;;;;;;;20.17;13.68;;;;;;;1.99;58.50;93700.50;4996693;28;20026;-80
2023/01/16 01:11:35;;;;;;;24.75;16.23;;;;;;;1.92;58.67;93686.84;4996348;28;20064;-79
2023/01/16 01:14:01;;;;;;;28.13;16.85;;;;;;;2.03;58.99;93701.53;4991069;28;20048;-80
2023/01/16 01:16:26;;;;;;;33.60;20.92;;;;;;;1.89;59.77;93669.81;4996403;28;20528;-79
2023/01/16 01:18:51;;;;;;;33.20;20.27;;;;;;;2.10;60.01;93667.97;4976210;28;20441;-78
2023/01/16 01:21:17;;;;;;;48.80;23.85;;;;;;;2.25;60.82;93702.06;4994459;28;20129;-79
2023/01/16 01:23:42;;;;;;;101.95;26.63;;;;;;;2.07;62.31;93674.50;4996317;28;20108;-78
2023/01/16 01:26:14;;;;;;;97.97;26.63;;;;;;;1.92;62.32;93644.88;4976949;28;20208;-78
2023/01/16 01:28:40;;;;;;;203.05;29.30;;;;;;;2.18;63.02;93696.28;4996414;28;20045;-79
2023/01/16 01:31:07;;;;;;;185.82;29.30;;;;;;;2.11;63.44;93658.25;4995898;28;20030;-80
2023/01/16 01:33:33;;;;;;;170.65;25.75;;;;;;;2.15;63.56;93667.97;4993671;28;20116;-78
2023/01/16 01:35:59;;;;;;;163.13;25.27;;;;;;;2.21;63.57;93677.38;4997050;28;20128;-80
2023/01/16 01:38:24;;;;;;;122.43;26.50;;;;;;;2.04;63.46;93658.53;4996577;28;20045;-79
2023/01/16 01:40:50;;;;;;;210.43;29.80;;;;;;;2.13;63.53;93679.75;4995501;28;20129;-78
2023/01/16 01:43:15;;;;;;;105.88;26.80;;;;;;;2.05;62.51;93639.13;4997058;28;20643;-80
2023/01/16 01:45:46;;;;;;;54.10;22.05;;;;;;;2.20;61.74;93657.47;4995781;28;20041;-78
2023/01/16 01:48:11;;;;;;;36.35;21.23;;;;;;;2.07;61.64;93658.78;4996333;28;20137;-79
2023/01/16 01:50:45;;;;;;;38.42;22.65;;;;;;;2.20;60.60;93662.72;4997085;28;20436;-80
2023/01/16 01:53:25;;;;;;;35.90;20.23;;;;;;;2.04;59.75;93624.41;4975858;28;20596;-79
2023/01/16 01:55:52;;;;;;;30.23;18.50;;;;;;;1.77;60.11;93632.53;4996901;28;20045;-78
2023/01/16 01:58:22;;;;;;;24.65;16.52;;;;;;;1.88;59.93;93638.59;4995814;28;20312;-79
2023/01/16 02:00:52;;;;;;;28.73;18.25;;;;;;;1.94;59.77;93653.28;4995940;28;20057;-80
2023/01/16 02:03:25;;;;;;;28.05;17.17;;;;;;;1.57;59.71;93607.09;4997336;28;20136;-78
2023/01/16 02:05:54;;;;;;;30.25;18.38;;;;;;;1.42;61.78;93635.13;4993956;28;20040;-80
2023/01/16 02:08:22;;;;;;;31.48;18.75;;;;;;;1.76;61.00;93640.66;4999942;28;20034;-78
2023/01/16 02:10:52;;;;;;;30.85;18.20;;;;;;;1.67;61.58;93648.25;4999749;28;21201;-78
2023/01/16 02:13:17;;;;;;;27.05;16.13;;;;;;;1.51;61.36;93623.09;4998208;28;20581;-79
2023/01/16 02:21:40;;;;;;;24.00;17.08;;;;;;;1.77;60.54;93642.22;5000617;28;20056;-78
2023/01/16 02:24:34;;;;;;;18.98;13.82;;;;;;;1.79;59.85;93637.50;4997558;28;20053;-79
2023/01/16 02:27:18;;;;;;;19.55;13.48;;;;;;;1.76;59.83;93635.44;4998821;28;20049;-79
2023/01/16 02:29:56;;;;;;;17.73;12.38;;;;;;;1.49;59.58;93586.66;4999880;28;20050;-78
2023/01/16 02:32:53;;;;;;;21.08;13.88;;;;;;;1.59;59.53;93614.69;4980733;28;20040;-78
2023/01/16 02:35:31;;;;;;;20.20;12.93;;;;;;;1.51;59.54;93592.44;4999723;28;20464;-79
2023/01/16 02:38:10;;;;;;;21.00;12.20;;;;;;;1.61;59.11;93613.41;5000621;28;20490;-78
2023/01/16 02:40:51;;;;;;;19.15;13.43;;;;;;;1.68;58.88;93616.53;4982634;28;20604;-79
2023/01/16 02:43:29;;;;;;;20.92;13.50;;;;;;;1.78;58.61;93620.19;4998769;28;20044;-80
2023/01/16 02:45:57;;;;;;;20.02;14.60;;;;;;;1.68;59.21;93624.41;4999136;28;20296;-79
2023/01/16 02:48:48;;;;;;;36.63;20.27;;;;;;;1.72;59.16;93623.91;4998806;28;20038;-79
2023/01/16 02:51:49;;;;;;;28.10;16.38;;;;;;;1.64;59.40;93618.13;4999141;28;20042;-80
2023/01/16 02:54:24;;;;;;;23.77;15.00;;;;;;;1.42;59.19;93590.59;4974695;28;20659;-79
2023/01/16 02:56:58;;;;;;;19.58;13.30;;;;;;;1.57;59.07;93609.72;4982202;28;20046;-78
2023/01/16 02:59:26;;;;;;;19.23;13.07;;;;;;;1.41;58.84;93576.69;4999080;28;20045;-79
2023/01/16 03:01:52;;;;;;;19.33;12.48;;;;;;;1.49;58.88;93576.16;4997681;28;20041;-78
2023/01/16 03:04:36;;;;;;;18.88;11.82;;;;;;;1.75;59.32;93597.13;4998077;28;20100;-78
2023/01/16 03:07:12;;;;;;;15.85;10.85;;;;;;;1.71;59.43;93588.22;4995940;28;20034;-78
2023/01/16 03:09:55;;;;;;;19.35;11.15;;;;;;;1.83;58.66;93605.25;4998823;28;20026;-78
2023/01/16 03:12:43;;;;;;;19.73;13.25;;;;;;;1.64;59.49;93586.66;4998770;28;20188;-79
2023/01/16 03:15:13;;;;;;;19.35;11.68;;;;;;;1.75;58.97;93597.94;4980823;28;20041;-79
2023/01/16 03:18:00;;;;;;;19.05;12.90;;;;;;;1.65;58.79;93588.22;4999399;28;20179;-78
2023/01/16 03:20:38;;;;;;;18.33;12.63;;;;;;;1.66;58.62;93584.56;4998433;28;20034;-78
2023/01/16 03:23:06;;;;;;;20.17;13.07;;;;;;;1.64;58.65;93580.63;4998025;28;20061;-78
2023/01/16 03:25:36;;;;;;;26.38;16.00;;;;;;;1.50;58.98;93563.84;4999046;28;20030;-78
2023/01/16 03:28:15;;;;;;;26.02;15.70;;;;;;;1.48;58.95;93553.63;4999162;28;20026;-78
2023/01/16 03:31:15;;;;;;;27.40;16.17;;;;;;;1.54;58.79;93581.41;4996851;28;20064;-79
2023/01/16 03:33:44;;;;;;;27.38;16.85;;;;;;;1.49;58.95;93573.53;4964623;28;20409;-79
2023/01/16 03:36:21;;;;;;;22.42;15.15;;;;;;;1.56;58.74;93555.75;4999325;28;20119;-78
2023/01/16 03:38:50;;;;;;;22.02;13.45;;;;;;;1.34;58.72;93539.47;4997209;28;20033;-79
2023/01/16 03:41:22;;;;;;;19.73;14.50;;;;;;;1.12;58.28;93504.91;4997179;28;20048;-78
2023/01/16 03:43:52;;;;;;;19.75;12.48;;;;;;;1.56;58.31;93553.13;4999414;28;20038;-79
2023/01/16 03:46:23;;;;;;;20.38;13.20;;;;;;;1.39;58.18;93518.50;4995886;28;20060;-80
2023/01/16 03:48:58;;;;;;;18.67;12.55;;;;;;;1.45;57.98;93520.09;4997648;28;20034;-79
2023/01/16 03:51:32;;;;;;;23.60;13.40;;;;;;;1.41;57.91;93531.38;4998196;28;20054;-79
2023/01/16 03:54:13;;;;;;;15.27;11.75;;;;;;;1.37;58.09;93523.25;4970596;28;20030;-79
2023/01/16 03:57:01;;;;;;;20.30;13.55;;;;;;;1.35;58.01;93520.09;4997728;28;20583;-80
2023/01/16 03:59:27;;;;;;;19.38;12.98;;;;;;;1.37;57.97;93509.34;4998329;28;20026;-78
2023/01/16 04:02:19;;;;;;;22.52;15.05;;;;;;;1.39;57.90;93521.13;4998215;28;20423;-78
2023/01/16 04:04:54;;;;;;;19.80;13.75;;;;;;;1.52;58.02;93540.81;4992572;28;20042;-78
2023/01/16 04:07:34;;;;;;;21.48;15.07;;;;;;;1.48;58.52;93545.75;4994158;28;20073;-77
2023/01/16 04:10:05;;;;;;;19.83;14.25;;;;;;;1.48;58.31;93535.28;4996698;28;20113;-79
2023/01/16 04:12:35;;;;;;;19.92;13.85;;;;;;;1.53;57.95;93529.25;4997352;28;20349;-79
2023/01/16 04:15:04;;;;;;;18.98;11.77;;;;;;;1.40;57.67;93504.38;4999209;28;20038;-79
2023/01/16 04:17:30;;;;;;;18.98;13.07;;;;;;;1.39;57.67;93507.25;4995399;28;20033;-78
2023/01/16 04:19:56;;;;;;;24.95;14.82;;;;;;;1.37;57.80;93523.25;4998488;28;20048;-78
2023/01/16 04:22:27;;;;;;;20.58;13.90;;;;;;;1.18;57.86;93496.75;4994706;28;20431;-79
2023/01/16 04:24:55;;;;;;;20.77;13.95;;;;;;;1.33;57.76;93527.41;4997654;28;20103;-79
2023/01/16 04:27:21;;;;;;;21.83;12.82;;;;;;;1.15;57.77;93509.59;4980573;28;20056;-78
2023/01/16 04:29:47;;;;;;;24.30;15.63;;;;;;;1.18;57.96;93535.28;4997370;28;20749;-80
2023/01/16 04:32:13;;;;;;;23.02;14.23;;;;;;;1.23;58.36;93519.56;4995837;28;20137;-79
2023/01/16 04:34:38;;;;;;;19.70;13.43;;;;;;;1.23;58.84;93522.19;4998961;28;20065;-78
2023/01/16 04:37:04;;;;;;;23.70;16.05;;;;;;;1.12;58.77;93489.19;4981303;28;20587;-79
2023/01/16 04:39:29;;;;;;;26.38;16.13;;;;;;;1.36;58.42;93511.19;4994720;28;20053;-78
2023/01/16 04:41:55;;;;;;;25.25;14.63;;;;;;;1.14;59.07;93516.69;4998584;28;21323;-78
2023/01/16 04:44:20;;;;;;;20.25;12.70;;;;;;;1.03;59.29;93511.72;4997257;28;20038;-79
2023/01/16 04:46:45;;;;;;;20.35;13.43;;;;;;;0.79;59.25;93474.75;4996222;28;20598;-78
2023/01/16 04:49:11;;;;;;;20.55;12.90;;;;;;;1.08;58.27;93490.75;4997849;28;20026;-79
2023/01/16 04:51:38;;;;;;;23.65;15.23;;;;;;;1.03;58.42;93511.72;4978399;28;20022;-78
2023/01/16 04:54:05;;;;;;;24.60;14.88;;;;;;;1.03;58.48;93509.09;4994005;28;20236;-79
2023/01/16 04:56:31;;;;;;;20.70;13.60;;;;;;;0.99;57.86;93489.69;4993426;28;20146;-80
2023/01/16 04:58:56;;;;;;;21.05;14.88;;;;;;;1.07;57.78;93510.13;4996787;28;20132;-78
2023/01/16 05:01:22;;;;;;;22.70;14.43;;;;;;;1.02;57.94;93505.69;4995943;28;20199;-79
2023/01/16 05:03:48;;;;;;;24.73;14.90;;;;;;;0.80;58.07;93478.94;4977710;28;20034;-79
2023/01/16 05:06:13;;;;;;;25.50;14.20;;;;;;;0.98;57.61;93506.47;4997549;28;20040;-78
2023/01/16 05:08:38;;;;;;;24.52;13.52;;;;;;;0.80;57.29;93479.72;4993992;28;20050;-79
2023/01/16 05:11:04;;;;;;;19.00;14.23;;;;;;;0.87;57.47;93470.84;4993114;28;20096;-79
2023/01/16 05:13:30;;;;;;;18.67;13.07;;;;;;;1.01;57.48;93503.31;4979173;28;20631;-78
2023/01/16 05:15:56;;;;;;;19.92;13.32;;;;;;;0.80;57.65;93471.88;4995747;28;20057;-78
2023/01/16 05:18:22;;;;;;;14.63;9.90;;;;;;;1.09;57.74;93484.44;4995354;28;20403;-78
2023/01/16 05:20:47;;;;;;;18.85;11.55;;;;;;;0.87;57.53;93452.50;4995970;28;20355;-78
2023/01/16 05:23:13;;;;;;;14.40;9.45;;;;;;;0.93;57.41;93481.06;4994936;28;20097;-78
2023/01/16 05:25:38;;;;;;;13.07;9.13;;;;;;;0.95;57.67;93486.03;4992402;28;20041;-79
2023/01/16 05:28:04;;;;;;;16.08;10.10;;;;;;;0.92;57.67;93479.50;4995953;28;20537;-79
2023/01/16 05:30:30;;;;;;;20.42;14.80;;;;;;;1.07;57.81;93481.34;4998453;28;20021;-78
2023/01/16 05:32:55;;;;;;;25.83;16.63;;;;;;;1.03;58.61;93480.28;4997084;28;20553;-79
2023/01/16 05:35:20;;;;;;;27.58;17.88;;;;;;;0.80;58.88;93445.69;4994769;28;20041;-80
2023/01/16 05:37:46;;;;;;;27.15;17.50;;;;;;;0.86;59.19;93454.34;4997942;28;20029;-78
2023/01/16 05:40:13;;;;;;;26.38;16.17;;;;;;;0.91;59.05;93459.59;5000137;28;20042;-79
2023/01/16 05:42:38;;;;;;;23.40;16.48;;;;;;;0.95;58.90;93462.47;4998502;28;20054;-78
2023/01/16 05:45:04;;;;;;;18.80;13.02;;;;;;;0.92;59.09;93452.53;5001331;28;20129;-78
2023/01/16 05:47:29;;;;;;;16.90;11.75;;;;;;;1.08;58.83;93441.75;4999218;28;20041;-79
2023/01/16 05:49:58;;;;;;;17.27;11.63;;;;;;;1.34;57.84;93463.50;4999615;28;20141;-79
2023/01/16 05:52:26;;;;;;;19.60;12.82;;;;;;;1.14;58.28;93447.78;5001653;28;20038;-78
2023/01/16 05:54:52;;;;;;;19.75;12.25;;;;;;;0.94;58.95;93445.97;4999580;28;20526;-79
2023/01/16 05:57:19;;;;;;;19.23;12.52;;;;;;;0.87;59.42;93444.66;4982659;28;20041;-78
2023/01/16 05:59:47;;;;;;;20.92;13.90;;;;;;;0.99;59.75;93474.75;4981243;28;20136;-78
2023/01/16 06:02:13;;;;;;;19.70;13.18;;;;;;;0.81;60.06;93446.50;5000203;28;20049;-78
2023/01/16 06:04:38;;;;;;;15.50;10.75;;;;;;;0.90;59.97;93441.50;4980613;28;20029;-79
2023/01/16 06:07:04;;;;;;;19.23;12.02;;;;;;;0.97;60.18;93452.53;5000895;28;20033;-80
2023/01/16 06:09:29;;;;;;;16.80;11.40;;;;;;;0.93;60.22;93443.63;5000008;28;20042;-78
2023/01/16 06:11:54;;;;;;;16.85;12.07;;;;;;;1.05;60.00;93452.00;4983888;28;20323;-79
2023/01/16 06:14:20;;;;;;;17.95;12.48;;;;;;;1.09;59.76;93455.66;4999658;28;20044;-78
2023/01/16 06:16:45;;;;;;;18.95;12.57;;;;;;;1.30;59.17;93444.13;5002401;28;20030;-78
2023/01/16 06:19:10;;;;;;;17.90;10.95;;;;;;;1.08;59.47;93435.78;4998558;28;20109;-80
2023/01/16 06:21:36;;;;;;;17.88;12.05;;;;;;;1.13;59.53;93444.38;4997729;28;20037;-78
2023/01/16 06:24:02;;;;;;;16.55;11.57;;;;;;;1.11;59.65;93430.78;4998598;28;20029;-78
2023/01/16 06:26:27;;;;;;;18.73;13.05;;;;;;;0.83;59.82;93405.13;5000746;28;20030;-79
2023/01/16 06:28:55;;;;;;;19.10;12.70;;;;;;;1.09;59.73;93434.69;4998931;28;20572;-78
2023/01/16 06:31:21;;;;;;;27.10;19.05;;;;;;;1.09;60.12;93442.56;5002220;28;20405;-79
2023/01/16 06:33:47;;;;;;;25.35;18.30;;;;;;;0.93;61.31;93459.34;4998166;28;20228;-78
2023/01/16 06:36:12;;;;;;;32.13;21.75;;;;;;;1.23;60.67;93469.78;5001092;28;20520;-78
2023/01/16 06:38:38;;;;;;;52.80;36.30;;;;;;;1.23;60.50;93454.06;4997540;28;20049;-79
2023/01/16 06:41:03;;;;;;;42.45;28.50;;;;;;;1.29;60.69;93473.97;4999799;28;20037;-79
2023/01/16 06:43:29;;;;;;;45.67;30.95;;;;;;;1.12;61.17;93444.66;4999475;28;20030;-79
2023/01/16 06:45:54;;;;;;;43.58;29.27;;;;;;;0.92;63.37;93453.31;5000177;28;20037;-78
2023/01/16 06:48:20;;;;;;;51.25;30.95;;;;;;;1.29;63.10;93462.72;4996926;28;20030;-78
2023/01/16 06:50:46;;;;;;;65.03;34.40;;;;;;;0.91;64.77;93448.31;4998785;28;20034;-78
2023/01/16 06:53:12;;;;;;;50.58;29.60;;;;;;;0.91;65.81;93449.13;4994514;28;20533;-79
2023/01/16 06:55:39;;;;;;;54.28;31.15;;;;;;;0.94;65.82;93440.72;4996999;28;20065;-79
2023/01/16 06:58:05;;;;;;;60.53;32.00;;;;;;;1.26;65.16;93453.56;4997272;28;20026;-79
2023/01/16 07:00:30;;;;;;;55.92;31.60;;;;;;;1.27;65.60;93455.13;4997549;28;20061;-79
2023/01/16 07:02:57;;;;;;;67.50;31.33;;;;;;;1.10;67.49;93465.88;4977699;28;20046;-79
2023/01/16 07:05:25;;;;;;;139.80;34.45;;;;;;;1.49;66.72;93463.47;4970303;28;20478;-78
2023/01/16 07:07:50;;;;;;;71.57;32.20;;;;;;;1.47;66.46;93444.59;4996813;28;20046;-79
2023/01/16 07:10:17;;;;;;;132.30;36.20;;;;;;;0.66;70.05;93439.41;4980248;28;20505;-80
2023/01/16 07:12:42;;;;;;;111.60;33.95;;;;;;;0.68;71.59;93467.94;4999078;28;20030;-78
2023/01/16 07:23:31;;;;;;;72.35;29.30;;;;;;;1.31;69.30;93450.94;4998135;28;20037;-79
2023/01/16 07:25:59;;;;;;;90.32;33.30;;;;;;;1.16;68.84;93433.41;4999007;28;20505;-78
2023/01/16 07:28:25;;;;;;;82.63;31.20;;;;;;;1.49;67.66;93431.25;4997431;28;20141;-78
2023/01/16 07:30:50;;;;;;;120.15;41.38;;;;;;;1.68;67.08;93445.34;4995039;28;20405;-79
2023/01/16 07:33:16;;;;;;;74.18;40.15;;;;;;;1.55;67.50;93438.84;4999217;28;20038;-78
2023/01/16 07:35:42;;;;;;;114.18;33.20;;;;;;;1.51;68.17;93444.88;4998197;28;20091;-79
2023/01/16 07:38:07;;;;;;;64.60;29.02;;;;;;;1.21;68.42;93394.09;4982046;28;20732;-78
2023/01/16 07:40:33;;;;;;;83.28;37.20;;;;;;;1.39;69.00;93426.81;4987778;28;20617;-79
2023/01/16 07:42:58;;;;;;;125.28;37.78;;;;;;;1.68;67.93;93434.84;4994532;28;20022;-79
2023/01/16 07:45:24;;;;;;;73.82;41.72;;;;;;;1.22;67.89;93379.16;4995728;28;20609;-79
2023/01/16 07:47:50;;;;;;;58.47;31.35;;;;;;;1.96;67.07;93431.63;4991863;28;20038;-78
2023/01/16 07:50:15;;;;;;;56.28;31.23;;;;;;;1.97;66.00;93412.22;4994641;28;20494;-79
2023/01/16 07:52:44;;;;;;;64.93;29.77;;;;;;;2.18;64.94;93407.69;4992222;28;20052;-80
2023/01/16 07:55:09;;;;;;;66.40;30.25;;;;;;;1.68;67.21;93406.03;4994447;28;20033;-80
2023/01/16 07:57:36;;;;;;;58.55;30.40;;;;;;;1.53;68.36;93408.69;4992031;28;20076;-79
2023/01/16 08:00:04;;;;;;;62.70;31.20;;;;;;;1.00;70.65;93399.63;4990364;28;20498;-79
2023/01/16 08:02:30;;;;;;;104.22;38.58;;;;;;;0.70;72.27;93388.09;4994692;28;20041;-79
2023/01/16 08:04:55;;;;;;;83.60;40.38;;;;;;;0.84;72.81;93390.97;4975965;28;20062;-78
2023/01/16 08:07:21;;;;;;;71.35;35.40;;;;;;;0.88;72.76;93376.34;4998508;28;20592;-79
2023/01/16 08:09:46;;;;;;;75.40;39.50;;;;;;;0.97;72.37;93393.09;4991790;28;20403;-79
2023/01/16 08:12:11;;;;;;;77.00;39.72;;;;;;;1.01;73.42;93404.59;4992548;28;20877;-78
2023/01/16 08:14:38;;;;;;;64.25;37.60;;;;;;;1.12;72.61;93389.66;4993510;28;20057;-79
2023/01/16 08:17:04;;;;;;;75.13;37.63;;;;;;;1.26;71.22;93397.75;4974526;28;20069;-78
2023/01/16 08:19:29;;;;;;;73.05;38.65;;;;;;;1.51;70.70;93416.84;4995425;28;20668;-79
2023/01/16 08:21:55;;;;;;;74.38;37.38;;;;;;;1.57;69.11;93386.91;4992210;28;20409;-79
2023/01/16 08:24:20;;;;;;;66.05;36.97;;;;;;;1.58;69.78;93408.66;4997186;28;20510;-78
2023/01/16 08:26:46;;;;;;;76.97;39.80;;;;;;;1.35;70.71;93410.06;4972035;28;20044;-78
2023/01/16 08:29:11;;;;;;;72.38;37.45;;;;;;;1.57;69.85;93418.38;4995564;28;20048;-78
2023/01/16 08:31:37;;;;;;;65.45;33.33;;;;;;;1.50;69.93;93402.16;4979521;28;20368;-78
2023/01/16 08:34:02;;;;;;;75.45;38.88;;;;;;;1.80;69.53;93390.78;4994496;28;20030;-78
2023/01/16 08:36:28;;;;;;;81.30;40.10;;;;;;;1.24;70.99;93371.81;4977094;28;20112;-80
2023/01/16 08:38:53;;;;;;;87.25;42.95;;;;;;;0.94;73.32;93362.16;4978666;28;20055;-79
2023/01/16 08:52:41;;;;;;;104.93;49.17;;;;;;;0.30;75.59;93373.16;4995803;28;20122;-79
2023/01/16 08:55:08;;;;;;;98.38;46.58;;;;;;;0.93;74.48;93378.94;4994562;28;20279;-79
2023/01/16 08:57:33;;;;;;;90.45;44.45;;;;;;;1.33;72.89;93391.19;4992980;28;20030;-80
2023/01/16 08:59:59;;;;;;;94.80;49.20;;;;;;;1.19;72.13;93379.69;4992581;28;20053;-79
2023/01/16 09:02:26;;;;;;;86.50;46.13;;;;;;;1.29;72.21;93387.53;4988331;28;20042;-79
2023/01/16 09:04:54;;;;;;;78.85;43.47;;;;;;;1.70;69.77;93353.34;4993131;28;20481;-80
2023/01/16 09:07:19;;;;;;;111.78;59.13;;;;;;;2.07;69.44;93375.47;4994087;28;20504;-79
2023/01/16 09:09:44;;;;;;;87.50;48.30;;;;;;;2.19;69.08;93359.41;4975155;28;20036;-78
2023/01/16 09:14:55;;;;;;;95.60;54.22;;;;;;;2.43;66.69;93354.25;4999474;28;20048;-78
2023/01/16 09:17:22;;;;;;;79.85;45.33;;;;;;;2.01;68.49;93352.94;4993558;28;20038;-79
2023/01/16 09:19:48;;;;;;;82.90;48.65;;;;;;;2.14;68.36;93327.97;5001843;28;20436;-80
2023/01/16 09:22:13;;;;;;;77.30;42.65;;;;;;;2.26;67.17;93317.91;4998907;28;20065;-80
2023/01/16 09:24:39;;;;;;;79.88;43.72;;;;;;;2.33;67.20;93336.75;5002272;28;20033;-78
2023/01/16 09:27:05;;;;;;;81.13;41.28;;;;;;;2.52;67.07;93319.28;4997479;28;20048;-78
2023/01/16 09:29:31;;;;;;;78.93;44.30;;;;;;;2.77;66.11;93331.41;4982538;28;20046;-79
2023/01/16 09:31:57;;;;;;;81.05;45.00;;;;;;;2.65;66.31;93314.44;5001144;28;20336;-80
2023/01/16 09:34:23;;;;;;;76.03;41.20;;;;;;;2.42;66.95;93303.63;5001192;28;20030;-79
2023/01/16 09:36:49;;;;;;;66.75;36.67;;;;;;;2.75;67.29;93330.13;4997888;28;20040;-78
2023/01/16 09:39:14;;;;;;;67.57;37.75;;;;;;;2.61;66.97;93316.84;4973110;28;20592;-79
2023/01/16 09:45:00;;;;;;;62.42;33.10;;;;;;;3.15;63.92;93300.06;4999662;28;20552;-79
2023/01/16 09:47:27;;;;;;;47.65;26.83;;;;;;;3.28;63.31;93289.66;4997168;28;20038;-78
2023/01/16 09:50:04;;;;;;;61.15;32.85;;;;;;;2.97;64.61;93291.06;4999794;28;20041;-80
2023/01/16 09:58:35;;;;;;;54.65;30.27;;;;;;;2.38;67.31;93302.59;4998299;28;20041;-79
2023/01/16 10:01:10;;;;;;;55.13;30.10;;;;;;;2.71;64.98;93284.47;4978807;28;20523;-79
2023/01/16 10:03:42;;;;;;;57.65;30.35;;;;;;;2.93;65.27;93297.94;4996145;28;20029;-80
2023/01/16 10:06:34;;;;;;;50.35;27.40;;;;;;;3.13;63.18;93276.72;4996316;28;20048;-79
2023/01/16 10:09:05;;;;;;;39.50;24.10;;;;;;;3.16;63.16;93289.28;4995260;28;20046;-78
2023/01/16 10:11:39;;;;;;;40.22;25.20;;;;;;;3.11;64.01;93268.31;4997008;28;20380;-79
2023/01/16 10:14:41;;;;;;;35.25;21.33;;;;;;;3.29;63.50;93258.91;4978712;28;20405;-77
2023/01/16 10:17:15;;;;;;;28.60;17.30;;;;;;;3.44;61.72;93237.69;4994825;28;20080;-80
2023/01/16 10:19:59;;;;;;;26.83;17.38;;;;;;;3.61;61.63;93261.69;4995608;28;20078;-79
2023/01/16 10:22:38;;;;;;;29.23;17.20;;;;;;;3.69;60.80;93237.38;4995160;28;20095;-77
2023/01/16 10:25:19;;;;;;;31.35;19.30;;;;;;;3.20;62.74;93245.63;4994960;28;20477;-80
2023/01/16 10:27:56;;;;;;;31.15;20.02;;;;;;;3.44;62.22;93239.53;4970604;28;20030;-80
2023/01/16 10:30:41;;;;;;;36.22;20.88;;;;;;;2.41;64.98;93201.53;4978073;28;20448;-81
2023/01/16 10:33:17;;;;;;;25.58;16.60;;;;;;;2.62;64.21;93223.91;4998674;28;20034;-80
2023/01/16 10:35:47;;;;;;;24.63;16.35;;;;;;;1.89;66.80;93215.34;4981074;28;20029;-80
2023/01/16 10:38:25;;;;;;;23.05;15.00;;;;;;;2.24;65.41;93195.91;4999712;28;20137;-78
2023/01/16 10:40:55;;;;;;;24.52;15.02;;;;;;;2.88;62.57;93190.28;4999203;28;20095;-78
2023/01/16 10:49:28;;;;;;;39.63;20.42;;;;;;;3.56;62.29;93205.75;4995760;28;20065;-79
2023/01/16 10:52:01;;;;;;;46.53;20.95;;;;;;;2.57;64.42;93153.09;4997158;28;20497;-79
2023/01/16 10:54:26;;;;;;;46.17;24.92;;;;;;;3.27;64.21;93172.47;4999048;28;20393;-78
2023/01/16 10:56:52;;;;;;;35.88;21.95;;;;;;;2.88;64.51;93185.03;4995655;28;20076;-79
2023/01/16 10:59:19;;;;;;;34.20;22.00;;;;;;;2.63;65.92;93156.44;4996317;28;20049;-78
2023/01/16 11:01:47;;;;;;;37.72;22.95;;;;;;;3.21;63.60;93155.22;4996231;28;20034;-78
2023/01/16 11:04:12;;;;;;;33.30;19.45;;;;;;;3.37;62.02;93143.44;4989896;28;20844;-79
2023/01/16 11:06:41;;;;;;;38.20;20.75;;;;;;;2.84;63.26;93118.38;4996502;28;20018;-78
2023/01/16 11:09:17;;;;;;;27.35;17.45;;;;;;;2.90;62.69;93115.41;4996960;28;20046;-79
2023/01/16 11:20:20;;;;;;;22.30;13.70;;;;;;;4.05;60.14;93135.03;4998063;28;20041;-79
2023/01/16 11:22:58;;;;;;;24.20;16.52;;;;;;;3.77;59.08;93138.66;4996726;28;20037;-79
2023/01/16 11:25:25;;;;;;;17.63;12.02;;;;;;;3.93;58.11;93121.53;4982206;28;20030;-78
2023/01/16 11:27:52;;;;;;;26.20;15.80;;;;;;;4.36;57.86;93135.31;4994986;28;20064;-79
2023/01/16 11:30:28;;;;;;;26.83;16.27;;;;;;;4.17;57.97;93082.72;4993915;28;20125;-79
2023/01/16 11:32:56;;;;;;;27.83;17.35;;;;;;;4.08;58.42;93128.41;4980857;28;20030;-78
2023/01/16 11:35:31;;;;;;;27.45;15.18;;;;;;;4.10;57.69;93106.00;4998092;28;20038;-78
2023/01/16 11:37:58;;;;;;;28.70;17.00;;;;;;;4.28;56.65;93105.16;4997451;28;20026;-79
2023/01/16 11:40:26;;;;;;;26.88;16.13;;;;;;;4.35;57.11;93117.19;4995859;28;20065;-80
2023/01/16 11:46:05;;;;;;;33.22;20.27;;;;;;;3.90;58.44;93105.56;4998526;28;20052;-80
2023/01/16 11:48:37;;;;;;;39.17;21.63;;;;;;;3.40;61.00;93108.69;4989458;28;20140;-80
2023/01/16 11:51:05;;;;;;;40.65;25.50;;;;;;;2.94;62.54;93068.34;4994150;28;20140;-78
2023/01/16 11:53:34;;;;;;;42.40;23.17;;;;;;;3.02;63.82;93083.47;4991918;28;20049;-78
2023/01/16 11:56:35;;;;;;;34.67;21.15;;;;;;;2.93;63.04;93090.44;4993404;28;20044;-78
2023/01/16 11:59:30;;;;;;;40.33;22.90;;;;;;;3.72;61.01;93078.25;4965268;28;20065;-78
2023/01/16 12:02:23;;;;;;;50.58;28.27;;;;;;;2.85;64.16;93075.28;4953291;28;20082;-80
2023/01/16 12:08:07;;;;;;;52.45;30.48;;;;;;;3.46;63.51;93053.41;4975176;28;20097;-81
2023/01/16 12:10:51;;;;;;;48.22;28.20;;;;;;;3.25;64.97;93024.03;4960867;28;20046;-78
2023/01/16 12:16:30;;;;;;;46.58;28.70;;;;;;;4.18;60.69;93039.53;4976469;28;20088;-78
2023/01/16 12:19:08;;;;;;;49.90;28.77;;;;;;;3.97;61.26;93048.88;4973596;28;20049;-78
2023/01/16 12:21:55;;;;;;;49.97;29.75;;;;;;;4.23;60.84;93046.56;4973893;28;20022;-79
2023/01/16 12:24:54;;;;;;;47.72;27.77;;;;;;;4.49;59.38;93034.50;4976688;28;20054;-78
2023/01/16 12:27:37;;;;;;;44.72;25.67;;;;;;;3.98;60.46;93002.28;4974161;28;20034;-79
2023/01/16 12:30:20;;;;;;;46.05;26.45;;;;;;;3.98;61.07;93026.75;4974954;28;20088;-79
2023/01/16 12:32:52;;;;;;;41.67;24.77;;;;;;;4.65;59.49;93027.06;4976135;28;20068;-79
2023/01/16 12:35:23;;;;;;;38.72;23.60;;;;;;;3.43;62.18;93014.56;4977015;28;20475;-80
2023/01/16 12:38:02;;;;;;;46.47;24.30;;;;;;;3.81;61.16;93013.38;4976943;28;20042;-80